< < Back
Terminal Aerodrome Forecast


Current Version              Previous Versions:   1  2  3  4  5  6  7  8  9  

Terminal Aerodrome Forecast

473
FTUS42 KMLB 232300
TAFMCO
TAF
KMCO 232333Z 2400/2424 19007KT P6SM SCT035 BKN070
     FM240300 18006KT P6SM FEW008 SCT025 BKN200
     FM240600 19005KT 5SM BR OVC005
      TEMPO 2414/2416 P6SM NSW SCT005 BKN008
     FM241600 20011KT P6SM BKN020=

Latest METAR

510
SAUS70 KWBC 240100 RRO
MTRMCO
METAR KMCO 240053Z 17005KT 10SM BKN029 BKN050 BKN250 24/23 A2993 RMK AO2
RAB16E26 SLP134 P0000 T02390233 $


USA.gov is the U.S. government's official web portal to all federal, state and local government web resources and services.